Flight Track Log - Related Links

Times and Time Zones

All times are in EST time to prevent confusion due to time zone crossing. See the BVN7560 flight status page for this flight to view local times or setup timezone preferences in your user account.

Time Position Orientation Groundspeed Altitude Reporting Facility
EST Latitude Longitude Course Direction KTS MPH feet Rate Location/Type
Mon 09:09:35 PM 37.9222 -100.7219 96° East 161 185 3,100  Level Kansas City Center
Mon 09:10:35 PM 37.9197 -100.6928 82° East 112 129 3,800 750 Climbing Kansas City Center
Mon 09:11:35 PM 37.9236 -100.6589 90° East 94 108 4,600 750 Climbing Kansas City Center
Mon 09:12:35 PM 37.9236 -100.6192 97° East 107 123 5,300 750 Climbing Kansas City Center
Mon 09:13:35 PM 37.9194 -100.5767 98° East 107 123 6,100 700 Climbing Kansas City Center
Mon 09:14:35 PM 37.9153 -100.5369 98° East 107 123 6,700 650 Climbing Kansas City Center
Mon 09:15:35 PM 37.9108 -100.4972 97° East 119 137 7,400 700 Climbing Kansas City Center
Mon 09:16:35 PM 37.9067 -100.4547 92° East 119 137 8,100 750 Climbing Kansas City Center
Mon 09:17:35 PM 37.9050 -100.4044 96° East 124 143 8,900 700 Climbing Kansas City Center
Mon 09:18:35 PM 37.9011 -100.3594 94° East 124 143 9,500 550 Climbing Kansas City Center
Mon 09:19:35 PM 37.8989 -100.3172 92° East 129 148 10,000 550 Climbing Kansas City Center
Mon 09:20:35 PM 37.8972 -100.2669 97° East 135 155 10,600 500 Climbing Kansas City Center
Mon 09:21:35 PM 37.8917 -100.2114 97° East 141 162 11,000 200 Climbing Kansas City Center
Mon 09:22:35 PM 37.8861 -100.1503 94° East 159 183 11,000  Level Kansas City Center
Mon 09:23:35 PM 37.8825 -100.0922 96° East 172 198 11,000  Level Kansas City Center
Mon 09:24:35 PM 37.8772 -100.0314 96° East 172 198 11,000  Level Kansas City Center
Mon 09:25:35 PM 37.8717 -99.9678 94° East 177 204 11,000  Level Kansas City Center
Mon 09:26:35 PM 37.8683 -99.9044 95° East 177 204 11,000  Level Kansas City Center
Mon 09:27:35 PM 37.8644 -99.8514 99° East 177 204 11,000  Level Kansas City Center
Mon 09:28:35 PM 37.8567 -99.7903 94° East 177 204 11,000  Level Kansas City Center
Mon 09:29:35 PM 37.8533 -99.7244 94° East 177 204 11,000  Level Kansas City Center
Mon 09:30:35 PM 37.8497 -99.6636 95° East 172 198 11,000  Level Kansas City Center
Mon 09:31:35 PM 37.8458 -99.6108 97° East 172 198 11,000  Level Kansas City Center
Mon 09:32:35 PM 37.8400 -99.5472 97° East 172 198 11,000  Level Kansas City Center
Mon 09:33:35 PM 37.8342 -99.4889 96° East 167 192 11,000  Level Kansas City Center
Mon 09:34:35 PM 37.8286 -99.4256 98° East 162 186 11,000  Level Kansas City Center
Mon 09:35:35 PM 37.8225 -99.3672 94° East 162 186 11,000  Level Kansas City Center
Mon 09:36:35 PM 37.8189 -99.3039 97° East 162 186 11,000  Level Kansas City Center
Mon 09:37:35 PM 37.8131 -99.2431 95° East 162 186 11,000  Level Kansas City Center
Mon 09:38:35 PM 37.8089 -99.1850 95° East 162 186 11,000  Level Kansas City Center
Mon 09:39:35 PM 37.8050 -99.1269 97° East 162 186 11,000  Level Kansas City Center
Mon 09:40:35 PM 37.7992 -99.0633 95° East 162 186 11,000  Level Kansas City Center
Mon 09:41:35 PM 37.7950 -99.0053 99° East 162 186 11,000  Level Kansas City Center
Mon 09:42:35 PM 37.7869 -98.9444 95° East 162 186 11,000  Level Kansas City Center
Mon 09:43:35 PM 37.7828 -98.8839 95° East 162 186 11,000  Level Kansas City Center
Mon 09:44:35 PM 37.7789 -98.8231 97° East 162 186 11,000 50 Level Kansas City Center
Mon 09:45:35 PM 37.7728 -98.7622 98° East 162 186 11,100 50 Climbing Kansas City Center
Mon 09:46:35 PM 37.7664 -98.7017 95° East 162 186 11,100  Level Kansas City Center
Mon 09:47:35 PM 37.7622 -98.6436 95° East 162 186 11,100  Level Kansas City Center
Mon 09:48:35 PM 37.7581 -98.5828 98° East 162 186 11,100  Level Kansas City Center
Mon 09:49:35 PM 37.7517 -98.5222 101° East 162 186 11,100 -130 Level Kansas City Center
Mon 09:50:07 PM 37.7467 -98.4903 99° East 177 204 10,900 -462 Descending Kansas City Center
Mon 09:51:19 PM 37.7367 -98.4083 97° East 190 219 10,300 -496 Descending Kansas City Center
Mon 09:52:20 PM 37.7306 -98.3425 98° East 194 223 9,800 -545 Descending Kansas City Center
Mon 09:53:20 PM 37.7225 -98.2711 95° East 197 227 9,200 -545 Descending Kansas City Center
Mon 09:54:21 PM 37.7183 -98.2053 95° East 189 217 8,700 -492 Descending Kansas City Center
Mon 09:55:22 PM 37.7139 -98.1419 100° East 181 208 8,200 -645 Descending Kansas City Center
Mon 09:56:22 PM 37.7053 -98.0786 95° East 178 205 7,400 -645 Descending Kansas City Center
Mon 09:57:23 PM 37.7011 -98.0128 95° East 183 211 6,900 -492 Descending Kansas City Center
Mon 09:58:24 PM 37.6967 -97.9522 96° East 180 207 6,400 -545 Descending Kansas City Center
Mon 09:59:24 PM 37.6919 -97.8917 98° East 177 204 5,800 -496 Descending Kansas City Center
Mon 10:00:25 PM 37.6856 -97.8308 99° East 173 199 5,400 -496 Descending Kansas City Center
Mon 10:01:25 PM 37.6786 -97.7728 93° East 165 190 4,800 -545 Descending Kansas City Center
Mon 10:02:26 PM 37.6761 -97.7150 99° East 168 193 4,300 -443 Descending Kansas City Center
Mon 10:03:27 PM 37.6692 -97.6597 98° East 161 185 3,900 -446 Descending Kansas City Center
Mon 10:04:27 PM 37.6625 -97.6017 91° East 154 177 3,400 -496 Descending Kansas City Center
Mon 10:05:28 PM 37.6617 -97.5517 88° East 146 168 2,900 -472 Descending Kansas City Center
Mon 10:06:34 PM 37.6631 -97.4967 81° East 144 166 2,400 -397 Descending Kansas City Center
Mon 10:07:29 PM 37.6681 -97.4550 81° East 127 146 2,100 -327 Descending Kansas City Center

Login

Don't have an account? Register now (free) for customized features, flight alerts, and more!